Jacksonville International

Airport
ICAO code: 
KJAX
Summary
ICAO Region: 
NAM
Territory: 
Location: 
Jacksonville, Florida,
Coordinates: 
Aerial View: 
30° 29' 38.762" N, 81° 41' 16.428" W
Airport WX: 
Tropical Revolving Storm
Metar
Observation
KJAX 021556Z 30006KT 10SM FEW250 19/11 A3018 RMK AO2 SLP221 T01890106
Station
Jacksonville, Jacksonville International Airport
Date/Time
2021-12-02 15:56:00
Wind direction
300°
Wind speed
06 kts
Lowest cloud amount
few clouds
Temperature
18.9°C
Dew point
10.6°C
Humidity
58%
Weather condition
n/a

Description

International airport serving Jacksonville, Florida, USA

Climatology

Humid “subtropical” climate (Köppen climate classification Cfa) - characterized by hot, humid summers and cool winters. Significant amounts of precipitation occur in all seasons in most areas. Winter rainfall (and sometimes snowfall) is associated with large storms that the westerlies steer from west to east. Most summer rainfall occurs during thunderstorms and occasional tropical storms (hurricanes).

Runways

Designator Length Width Surface Rops
13/31 2347 46 CON Yes/Yes
7/25 3048 46 CON Yes/Yes
Airport map: 
Aerial View: 

SKYbrary Partners:

Safety knowledge contributed by: